createdAt,value
2023-08-06T00:00:45.772Z,3.33
2023-08-06T00:03:12.524Z,4.20
2023-08-06T00:05:42.918Z,5.53
2023-08-06T00:08:09.533Z,3.22
2023-08-06T00:10:36.185Z,4.28
2023-08-06T00:13:02.766Z,4.25
2023-08-06T00:15:29.340Z,3.90
2023-08-06T00:17:55.943Z,5.50
2023-08-06T00:20:22.635Z,3.83
2023-08-06T00:22:49.195Z,4.60
2023-08-06T00:25:15.762Z,4.18
2023-08-06T00:27:42.341Z,3.72
2023-08-06T00:30:09.090Z,5.47
2023-08-06T00:32:35.677Z,4.88
2023-08-06T00:35:02.272Z,5.00
2023-08-06T00:37:28.860Z,4.47
2023-08-06T00:39:55.413Z,5.50
2023-08-06T00:42:21.982Z,4.03
2023-08-06T00:44:48.823Z,4.88
2023-08-06T00:47:16.121Z,4.32
2023-08-06T00:49:42.838Z,6.82
2023-08-06T00:52:09.501Z,5.95
2023-08-06T00:54:36.686Z,3.80
2023-08-06T00:57:04.333Z,6.00
2023-08-06T00:59:32.662Z,5.03
2023-08-06T01:01:59.282Z,4.45
2023-08-06T01:04:25.976Z,3.55
2023-08-06T01:07:26.134Z,4.07
2023-08-06T01:10:11.020Z,3.30
2023-08-06T01:12:51.488Z,4.63
2023-08-06T01:15:26.742Z,3.63
2023-08-06T01:17:54.000Z,2.80
2023-08-06T01:20:20.591Z,2.80
2023-08-06T01:22:47.174Z,3.33
2023-08-06T01:25:17.510Z,2.78
2023-08-06T01:27:50.090Z,2.45
2023-08-06T01:30:28.246Z,2.60
2023-08-06T01:32:59.795Z,3.47
2023-08-06T01:35:28.603Z,4.35
2023-08-06T01:37:55.160Z,6.85
2023-08-06T01:40:21.733Z,3.38
2023-08-06T01:42:48.281Z,3.65
2023-08-06T01:45:15.393Z,3.13
2023-08-06T01:47:41.999Z,3.47
2023-08-06T01:50:08.888Z,3.33
2023-08-06T01:52:35.465Z,2.88
2023-08-06T01:55:02.062Z,2.47
2023-08-06T01:57:29.068Z,3.83
2023-08-06T01:59:55.605Z,3.08
2023-08-06T02:02:22.244Z,2.92
2023-08-06T02:04:48.924Z,2.97
2023-08-06T02:07:15.578Z,2.65
2023-08-06T02:09:42.143Z,2.45
2023-08-06T02:12:08.965Z,3.53
2023-08-06T02:14:35.527Z,2.80
2023-08-06T02:17:02.087Z,4.38
2023-08-06T02:19:28.652Z,3.85
2023-08-06T02:21:55.384Z,4.07
2023-08-06T02:24:22.188Z,4.05
2023-08-06T02:26:48.762Z,3.42
2023-08-06T02:29:15.311Z,3.03
2023-08-06T02:31:41.885Z,3.22
2023-08-06T02:34:08.493Z,2.97
2023-08-06T02:36:35.028Z,2.50
2023-08-06T02:39:01.581Z,2.45
2023-08-06T02:41:28.123Z,3.25
2023-08-06T02:43:54.652Z,3.10
2023-08-06T02:46:21.258Z,1.42
2023-08-06T02:48:47.793Z,2.33
2023-08-06T02:51:14.367Z,3.55
2023-08-06T02:53:40.983Z,2.90
2023-08-06T02:56:07.542Z,2.70
2023-08-06T02:58:34.084Z,4.15
2023-08-06T03:01:02.483Z,5.75
2023-08-06T03:03:29.330Z,4.03
2023-08-06T03:05:55.961Z,3.00
2023-08-06T03:08:22.633Z,3.20
2023-08-06T03:10:50.336Z,2.10
2023-08-06T03:13:18.108Z,3.50
2023-08-06T03:15:52.118Z,2.78
2023-08-06T03:18:18.670Z,2.30
2023-08-06T03:20:46.108Z,3.38
2023-08-06T03:23:14.900Z,2.00
2023-08-06T03:25:41.467Z,2.45
2023-08-06T03:28:08.052Z,4.72
2023-08-06T03:30:34.704Z,3.30
2023-08-06T03:33:01.322Z,6.00
2023-08-06T03:35:27.971Z,2.25
2023-08-06T03:37:54.538Z,2.50
2023-08-06T03:40:21.333Z,1.70
2023-08-06T03:42:47.954Z,2.70
2023-08-06T03:45:14.606Z,2.58
2023-08-06T03:47:41.453Z,1.77
2023-08-06T03:50:08.271Z,3.45
2023-08-06T03:52:34.860Z,3.20
2023-08-06T03:55:01.404Z,5.10
2023-08-06T03:57:27.986Z,2.90
2023-08-06T03:59:55.663Z,2.38
2023-08-06T04:02:22.518Z,1.92
2023-08-06T04:04:49.871Z,3.17
2023-08-06T04:07:16.465Z,2.67
2023-08-06T04:09:58.038Z,1.92
2023-08-06T04:14:52.460Z,3.15
2023-08-06T04:17:19.908Z,3.20
2023-08-06T04:19:47.063Z,6.55
2023-08-06T04:22:13.660Z,2.60
2023-08-06T04:24:40.211Z,4.15
2023-08-06T04:27:06.876Z,4.00
2023-08-06T04:29:33.408Z,2.88
2023-08-06T04:31:59.955Z,4.38
2023-08-06T04:34:26.524Z,4.05
2023-08-06T04:36:53.211Z,4.40
2023-08-06T04:39:19.807Z,5.35
2023-08-06T04:41:46.387Z,6.40
2023-08-06T04:44:12.938Z,7.82
2023-08-06T04:46:39.548Z,4.13
2023-08-06T04:49:06.279Z,3.78
2023-08-06T04:51:32.858Z,3.28
2023-08-06T04:53:59.590Z,4.28
2023-08-06T04:56:26.252Z,9.07
2023-08-06T04:58:52.823Z,3.38
2023-08-06T05:01:19.424Z,8.10
2023-08-06T05:03:46.218Z,3.97
2023-08-06T05:06:12.787Z,4.25
2023-08-06T05:08:39.364Z,3.25
2023-08-06T05:11:06.095Z,4.32
2023-08-06T05:13:32.644Z,4.95
2023-08-06T05:15:59.402Z,3.30
2023-08-06T05:18:26.013Z,4.63
2023-08-06T05:20:52.599Z,3.55
2023-08-06T05:23:19.223Z,3.33
2023-08-06T05:25:45.806Z,3.35
2023-08-06T05:28:12.360Z,3.45
2023-08-06T05:30:42.235Z,2.90
2023-08-06T05:33:08.816Z,3.90
2023-08-06T05:35:35.384Z,3.15
2023-08-06T05:38:01.979Z,2.60
2023-08-06T05:40:28.557Z,2.22
2023-08-06T05:42:55.803Z,2.10
2023-08-06T05:45:22.369Z,2.63
2023-08-06T05:47:49.517Z,3.58
2023-08-06T05:50:16.145Z,2.60
2023-08-06T05:52:42.711Z,2.97
2023-08-06T05:55:09.589Z,5.05
2023-08-06T05:57:36.153Z,3.25
2023-08-06T06:00:03.530Z,3.33
2023-08-06T06:02:30.126Z,4.68
2023-08-06T06:04:56.732Z,5.05
2023-08-06T06:07:23.323Z,5.22
2023-08-06T06:09:49.881Z,5.72
2023-08-06T06:12:16.476Z,6.93
2023-08-06T06:14:43.017Z,4.93
2023-08-06T06:17:09.604Z,6.18
2023-08-06T06:19:36.156Z,5.32
2023-08-06T06:22:02.848Z,8.50
2023-08-06T06:24:29.415Z,5.50
2023-08-06T06:26:55.971Z,6.78
2023-08-06T06:29:22.636Z,8.25
2023-08-06T06:31:49.370Z,6.32
2023-08-06T06:34:16.042Z,5.97
2023-08-06T06:36:42.581Z,4.10
2023-08-06T06:39:09.198Z,4.75
2023-08-06T06:41:35.788Z,3.15
2023-08-06T06:44:02.398Z,2.40
2023-08-06T06:46:28.997Z,2.28
2023-08-06T06:48:55.564Z,2.15
2023-08-06T06:51:22.139Z,1.55
2023-08-06T06:53:48.762Z,2.00
2023-08-06T06:56:15.348Z,1.75
2023-08-06T06:58:41.911Z,1.50
2023-08-06T07:01:08.821Z,1.65
2023-08-06T07:03:35.547Z,0.70
2023-08-06T07:06:02.315Z,0.93
2023-08-06T07:08:29.033Z,1.17
2023-08-06T07:11:06.339Z,1.45
2023-08-06T07:13:33.760Z,1.40
2023-08-06T07:16:00.405Z,2.53
2023-08-06T07:18:27.002Z,1.67
2023-08-06T07:20:54.635Z,2.15
2023-08-06T07:23:27.483Z,1.92
2023-08-06T07:25:54.106Z,1.42
2023-08-06T07:28:20.760Z,1.27
2023-08-06T07:30:47.758Z,1.88
2023-08-06T07:33:14.392Z,1.83
2023-08-06T07:35:41.024Z,2.70
2023-08-06T07:38:07.648Z,2.25
2023-08-06T07:40:36.869Z,2.33
2023-08-06T07:43:03.465Z,2.40
2023-08-06T07:45:34.111Z,1.65
2023-08-06T07:48:00.750Z,1.88
2023-08-06T07:50:27.398Z,1.83
2023-08-06T07:52:54.082Z,1.17
2023-08-06T07:55:20.728Z,1.13
2023-08-06T07:57:47.369Z,2.33
2023-08-06T08:00:13.997Z,1.98
2023-08-06T08:02:40.619Z,3.40
2023-08-06T08:05:07.535Z,1.70
2023-08-06T08:07:34.160Z,2.00
2023-08-06T08:10:00.820Z,1.63
2023-08-06T08:12:27.452Z,3.05
2023-08-06T08:14:54.001Z,2.67
2023-08-06T08:17:20.737Z,2.90
2023-08-06T08:19:47.436Z,2.05
2023-08-06T08:22:14.045Z,1.33
2023-08-06T08:24:40.735Z,1.92
2023-08-06T08:27:07.336Z,1.73
2023-08-06T08:29:33.884Z,1.58
2023-08-06T08:32:00.426Z,2.17
2023-08-06T08:34:27.009Z,3.03
2023-08-06T08:36:53.549Z,4.30
2023-08-06T08:39:20.102Z,5.35
2023-08-06T08:41:46.668Z,2.80
2023-08-06T08:44:17.025Z,1.90
2023-08-06T08:46:44.969Z,2.63
2023-08-06T08:49:12.407Z,3.17
2023-08-06T08:51:39.140Z,2.38
2023-08-06T08:54:08.245Z,2.67
2023-08-06T08:56:34.869Z,2.83
2023-08-06T08:59:01.468Z,3.30
2023-08-06T09:01:29.945Z,3.35
2023-08-06T09:03:57.897Z,4.43
2023-08-06T09:06:28.703Z,4.43
2023-08-06T09:09:07.091Z,4.25
2023-08-06T09:11:38.240Z,3.80
2023-08-06T09:14:05.432Z,4.07
2023-08-06T09:16:32.321Z,3.17
2023-08-06T09:19:11.542Z,3.75
2023-08-06T09:21:39.336Z,2.78
2023-08-06T09:24:13.376Z,3.55
2023-08-06T09:26:46.274Z,4.07
2023-08-06T09:29:13.330Z,4.30
2023-08-06T09:31:50.780Z,5.80
2023-08-06T09:34:19.483Z,5.30
2023-08-06T09:36:51.069Z,5.03
2023-08-06T09:39:22.740Z,4.28
2023-08-06T09:41:57.266Z,4.32
2023-08-06T09:44:25.180Z,8.75
2023-08-06T09:46:54.118Z,6.60
2023-08-06T09:49:24.067Z,8.35
2023-08-06T09:51:52.724Z,6.38
2023-08-06T09:54:27.390Z,6.93
2023-08-06T09:56:55.696Z,4.30
2023-08-06T09:59:23.544Z,6.03
2023-08-06T10:01:50.298Z,4.40
2023-08-06T10:04:23.690Z,5.70
2023-08-06T10:06:51.901Z,7.50
2023-08-06T10:09:18.537Z,7.70
2023-08-06T10:11:51.990Z,6.68
2023-08-06T10:14:31.601Z,6.60
2023-08-06T10:16:59.570Z,5.53
2023-08-06T10:19:27.705Z,8.10
2023-08-06T10:22:14.328Z,3.42
2023-08-06T10:24:52.841Z,4.50
2023-08-06T10:27:34.878Z,4.10
2023-08-06T10:30:30.662Z,4.00
2023-08-06T10:32:59.301Z,5.57
2023-08-06T10:35:37.706Z,4.97
2023-08-06T10:38:15.883Z,3.85
2023-08-06T10:40:51.322Z,3.88
2023-08-06T10:43:28.602Z,6.22
2023-08-06T10:45:55.859Z,4.78
2023-08-06T10:48:36.445Z,3.45
2023-08-06T10:51:04.223Z,4.72
2023-08-06T10:53:33.730Z,3.10
2023-08-06T10:56:02.055Z,2.92
2023-08-06T10:58:35.053Z,3.75
2023-08-06T11:01:01.946Z,5.38
2023-08-06T11:03:29.538Z,3.22
2023-08-06T11:05:56.154Z,6.15
2023-08-06T11:08:30.744Z,4.22
2023-08-06T11:11:12.721Z,3.90
2023-08-06T11:13:46.754Z,5.40
2023-08-06T11:16:20.793Z,5.50
2023-08-06T11:18:47.673Z,5.03
2023-08-06T11:21:14.387Z,3.95
2023-08-06T11:23:42.080Z,4.13
2023-08-06T11:26:09.214Z,4.88
2023-08-06T11:28:35.859Z,3.85
2023-08-06T11:31:02.479Z,3.63
2023-08-06T11:33:29.658Z,5.93
2023-08-06T11:35:57.226Z,4.93
2023-08-06T11:38:26.931Z,6.20
2023-08-06T11:43:21.000Z,3.60
2023-08-06T11:45:47.682Z,4.35
2023-08-06T11:48:14.273Z,5.40
2023-08-06T11:50:43.905Z,4.15
2023-08-06T11:55:39.529Z,4.28
2023-08-06T11:58:06.152Z,3.05
2023-08-06T12:00:33.295Z,6.15
2023-08-06T12:03:00.219Z,4.50
2023-08-06T12:05:39.043Z,2.80
2023-08-06T12:08:06.440Z,3.90
2023-08-06T12:10:33.995Z,5.15
2023-08-06T12:13:01.191Z,2.92
2023-08-06T12:15:27.855Z,6.80
2023-08-06T12:17:55.875Z,2.60
2023-08-06T12:20:22.476Z,3.92
2023-08-06T12:22:49.097Z,2.30
2023-08-06T12:25:15.706Z,3.30
2023-08-06T12:28:03.241Z,4.82
2023-08-06T12:31:15.729Z,6.43
2023-08-06T12:33:45.263Z,4.93
2023-08-06T12:36:14.577Z,3.15
2023-08-06T12:38:41.170Z,3.78
2023-08-06T12:41:38.227Z,3.50
2023-08-06T12:44:13.374Z,4.95
2023-08-06T12:46:44.351Z,3.60
2023-08-06T12:49:10.939Z,5.03
2023-08-06T12:51:37.526Z,4.25
2023-08-06T12:54:04.107Z,5.40
2023-08-06T12:56:30.667Z,5.97
2023-08-06T12:58:57.256Z,4.25
2023-08-06T13:01:23.892Z,3.60
2023-08-06T13:03:50.533Z,5.78
2023-08-06T13:06:17.126Z,3.80
2023-08-06T13:08:43.693Z,3.20
2023-08-06T13:11:10.331Z,2.85
2023-08-06T13:13:37.003Z,5.82
2023-08-06T13:16:03.980Z,5.55
2023-08-06T13:18:30.585Z,3.25
2023-08-06T13:20:57.166Z,4.85
2023-08-06T13:23:23.892Z,2.13
2023-08-06T13:25:50.445Z,1.88
2023-08-06T13:28:17.073Z,2.35
2023-08-06T13:30:43.717Z,5.78
2023-08-06T13:33:12.183Z,2.83
2023-08-06T13:35:39.314Z,2.22
2023-08-06T13:38:05.893Z,2.80
2023-08-06T13:40:33.903Z,2.45
2023-08-06T13:43:01.100Z,3.42
2023-08-06T13:45:27.672Z,3.33
2023-08-06T13:47:54.881Z,5.70
2023-08-06T13:50:21.511Z,2.75
2023-08-06T13:52:48.084Z,3.25
2023-08-06T13:55:14.654Z,3.85
2023-08-06T13:57:41.200Z,3.78
2023-08-06T14:00:08.353Z,3.08
2023-08-06T14:02:34.995Z,2.60
2023-08-06T14:05:01.609Z,3.05
2023-08-06T14:07:28.187Z,2.70
2023-08-06T14:09:54.730Z,1.92
2023-08-06T14:12:21.279Z,2.38
2023-08-06T14:14:47.844Z,2.38
2023-08-06T14:17:14.404Z,4.15
2023-08-06T14:19:40.946Z,3.65
2023-08-06T14:22:07.607Z,2.17
2023-08-06T14:24:34.195Z,2.45
2023-08-06T14:27:00.787Z,2.45
2023-08-06T14:29:27.353Z,3.25
2023-08-06T14:31:53.903Z,1.70
2023-08-06T14:34:20.474Z,1.73
2023-08-06T14:36:47.078Z,1.98
2023-08-06T14:39:13.610Z,2.40
2023-08-06T14:41:40.176Z,2.05
2023-08-06T14:44:06.771Z,1.95
2023-08-06T14:46:33.381Z,3.35
2023-08-06T14:49:00.076Z,2.30
2023-08-06T14:51:26.720Z,2.95
2023-08-06T14:53:53.308Z,5.13
2023-08-06T14:56:19.887Z,2.65
2023-08-06T14:58:46.479Z,2.80
2023-08-06T15:01:13.770Z,3.38
2023-08-06T15:03:40.425Z,2.33
2023-08-06T15:06:13.108Z,3.60
2023-08-06T15:08:42.229Z,4.03
2023-08-06T15:11:08.855Z,2.92
2023-08-06T15:13:35.492Z,2.63
2023-08-06T15:16:02.077Z,2.67
2023-08-06T15:18:28.702Z,2.80
2023-08-06T15:20:55.388Z,3.63
2023-08-06T15:23:22.133Z,2.80
2023-08-06T15:25:48.779Z,3.28
2023-08-06T15:28:18.011Z,2.50
2023-08-06T15:30:51.930Z,3.03
2023-08-06T15:33:19.561Z,6.18
2023-08-06T15:36:04.142Z,3.72
2023-08-06T15:38:30.706Z,2.63
2023-08-06T15:40:57.441Z,2.60
2023-08-06T15:43:24.022Z,3.80
2023-08-06T15:45:50.620Z,3.22
2023-08-06T15:48:17.377Z,3.90
2023-08-06T15:50:46.127Z,2.95
2023-08-06T15:53:13.119Z,5.60
2023-08-06T15:55:39.876Z,4.38
2023-08-06T15:58:06.521Z,4.28
2023-08-06T16:00:33.387Z,3.17
2023-08-06T16:03:00.030Z,3.33
2023-08-06T16:05:26.733Z,2.70
2023-08-06T16:07:56.233Z,2.95
2023-08-06T16:10:22.823Z,4.00
2023-08-06T16:12:49.411Z,4.10
2023-08-06T16:15:16.072Z,3.42
2023-08-06T16:17:42.653Z,2.38
2023-08-06T16:20:09.740Z,4.15
2023-08-06T16:22:36.438Z,3.92
2023-08-06T16:25:03.166Z,3.58
2023-08-06T16:27:29.749Z,3.60
2023-08-06T16:29:58.804Z,4.05
2023-08-06T16:32:25.466Z,3.92
2023-08-06T16:34:52.155Z,3.13
2023-08-06T16:37:18.697Z,4.22
2023-08-06T16:39:45.288Z,4.07
2023-08-06T16:42:12.904Z,3.67
2023-08-06T16:44:39.485Z,5.25
2023-08-06T16:47:06.289Z,8.45
2023-08-06T16:49:32.842Z,5.60
2023-08-06T16:51:59.406Z,4.32
2023-08-06T16:54:26.125Z,6.10
2023-08-06T16:56:52.913Z,5.60
2023-08-06T16:59:19.849Z,4.97
2023-08-06T17:01:46.571Z,7.38
2023-08-06T17:04:13.309Z,4.05
2023-08-06T17:06:39.936Z,5.53
2023-08-06T17:09:06.636Z,4.55
2023-08-06T17:11:33.229Z,2.38
2023-08-06T17:13:59.930Z,2.13
2023-08-06T17:16:26.676Z,3.88
2023-08-06T17:18:53.287Z,3.15
2023-08-06T17:21:19.878Z,5.80
2023-08-06T17:23:46.487Z,1.67
2023-08-06T17:26:13.141Z,1.55
2023-08-06T17:28:39.740Z,2.05
2023-08-06T17:31:06.454Z,4.43
2023-08-06T17:33:33.143Z,1.73
2023-08-06T17:35:59.778Z,1.77
2023-08-06T17:38:26.361Z,1.55
2023-08-06T17:40:56.436Z,2.08
2023-08-06T17:43:23.058Z,4.80
2023-08-06T17:45:49.723Z,2.10
2023-08-06T17:48:16.420Z,3.10
2023-08-06T17:50:45.986Z,3.35
2023-08-06T17:53:14.110Z,2.30
2023-08-06T17:55:40.712Z,3.25
2023-08-06T17:58:07.433Z,2.97
2023-08-06T18:00:34.324Z,3.22
2023-08-06T18:03:00.998Z,3.38
2023-08-06T18:05:27.754Z,3.20
2023-08-06T18:07:54.443Z,2.70
2023-08-06T18:10:21.489Z,3.00
2023-08-06T18:12:48.109Z,4.35
2023-08-06T18:15:14.737Z,3.80
2023-08-06T18:17:41.925Z,2.83
2023-08-06T18:20:09.456Z,4.82
2023-08-06T18:22:36.323Z,8.93
2023-08-06T18:25:03.025Z,5.85
2023-08-06T18:27:29.587Z,4.53
2023-08-06T18:29:56.175Z,5.68
2023-08-06T18:32:22.798Z,6.05
2023-08-06T18:34:49.429Z,2.97
2023-08-06T18:37:16.018Z,5.57
2023-08-06T18:39:42.604Z,6.35
2023-08-06T18:42:09.461Z,7.53
2023-08-06T18:44:36.037Z,7.75
2023-08-06T18:47:02.587Z,4.05
2023-08-06T18:49:29.155Z,4.50
2023-08-06T18:51:55.872Z,5.07
2023-08-06T18:54:22.504Z,6.10
2023-08-06T18:56:49.048Z,8.48
2023-08-06T18:59:15.630Z,4.57
2023-08-06T19:01:42.199Z,4.18
2023-08-06T19:04:08.789Z,5.03
2023-08-06T19:06:35.383Z,7.57
2023-08-06T19:09:02.066Z,6.95
2023-08-06T19:11:28.645Z,4.15
2023-08-06T19:13:55.197Z,6.28
2023-08-06T19:16:21.881Z,4.85
2023-08-06T19:18:48.574Z,6.63
2023-08-06T19:21:15.177Z,6.63
2023-08-06T19:23:41.862Z,5.72
2023-08-06T19:26:08.546Z,12.13
2023-08-06T19:28:35.272Z,7.90
2023-08-06T19:31:01.859Z,5.78
2023-08-06T19:33:28.474Z,6.40
2023-08-06T19:35:55.410Z,6.60
2023-08-06T19:38:23.919Z,7.57
2023-08-06T19:40:51.411Z,7.13
2023-08-06T19:43:18.184Z,3.03
2023-08-06T19:45:49.362Z,6.03
2023-08-06T19:48:16.472Z,4.57
2023-08-06T19:50:43.171Z,2.90
2023-08-06T19:53:09.758Z,8.30
2023-08-06T19:55:39.444Z,5.07
2023-08-06T19:58:06.052Z,6.57
2023-08-06T20:00:32.600Z,2.70
2023-08-06T20:02:59.240Z,4.88
2023-08-06T20:05:25.931Z,5.43
2023-08-06T20:07:52.498Z,5.90
2023-08-06T20:10:19.506Z,8.40
2023-08-06T20:12:46.152Z,5.75
2023-08-06T20:15:12.761Z,9.13
2023-08-06T20:17:39.392Z,6.95
2023-08-06T20:20:06.882Z,8.10
2023-08-06T20:22:33.477Z,9.38
2023-08-06T20:25:00.189Z,6.95
2023-08-06T20:27:26.796Z,9.23
2023-08-06T20:29:53.444Z,5.85
2023-08-06T20:32:20.029Z,6.18
2023-08-06T20:34:48.588Z,5.68
2023-08-06T20:37:16.342Z,8.48
2023-08-06T20:39:43.054Z,8.20
2023-08-06T20:42:09.709Z,7.97
2023-08-06T20:44:36.359Z,6.82
2023-08-06T20:47:03.044Z,8.65
2023-08-06T20:49:29.743Z,12.25
2023-08-06T20:51:57.067Z,6.35
2023-08-06T20:54:24.093Z,5.25
2023-08-06T20:56:50.719Z,4.57
2023-08-06T20:59:17.295Z,3.53
2023-08-06T21:01:44.118Z,8.80
2023-08-06T21:04:10.873Z,7.57
2023-08-06T21:06:40.110Z,6.57
2023-08-06T21:09:07.243Z,7.10
2023-08-06T21:11:34.766Z,4.90
2023-08-06T21:14:01.357Z,8.35
2023-08-06T21:16:28.354Z,6.30
2023-08-06T21:18:55.015Z,5.70
2023-08-06T21:21:21.606Z,6.07
2023-08-06T21:23:48.175Z,3.67
2023-08-06T21:26:14.889Z,5.50
2023-08-06T21:28:41.531Z,6.72
2023-08-06T21:31:12.873Z,4.32
2023-08-06T21:33:42.382Z,5.93
2023-08-06T21:36:10.152Z,6.28
2023-08-06T21:38:41.482Z,8.98
2023-08-06T21:41:12.796Z,5.60
2023-08-06T21:43:41.051Z,5.55
2023-08-06T21:46:09.129Z,4.22
2023-08-06T21:48:38.301Z,7.55
2023-08-06T21:51:06.713Z,10.20
2023-08-06T21:53:34.707Z,5.97
2023-08-06T21:56:09.135Z,9.15
2023-08-06T21:58:37.659Z,8.80
2023-08-06T22:01:06.355Z,7.28
2023-08-06T22:03:34.014Z,8.13
2023-08-06T22:06:01.160Z,6.20
2023-08-06T22:08:29.282Z,9.75
2023-08-06T22:10:57.511Z,5.00
2023-08-06T22:13:24.715Z,8.38
2023-08-06T22:15:54.051Z,6.82
2023-08-06T22:18:21.298Z,7.18
2023-08-06T22:20:59.227Z,5.00
2023-08-06T22:23:26.181Z,9.10
2023-08-06T22:25:56.145Z,5.85
2023-08-06T22:28:24.356Z,8.27
2023-08-06T22:30:52.200Z,8.10
2023-08-06T22:33:19.228Z,8.27
2023-08-06T22:35:46.329Z,5.53
2023-08-06T22:38:13.031Z,7.43
2023-08-06T22:40:39.612Z,7.85
2023-08-06T22:43:06.323Z,7.60
2023-08-06T22:45:33.252Z,5.68
2023-08-06T22:48:00.289Z,5.45
2023-08-06T22:50:27.068Z,4.57
2023-08-06T22:52:53.743Z,10.30
2023-08-06T22:55:41.312Z,8.80
2023-08-06T22:58:06.854Z,8.63
2023-08-06T23:00:33.747Z,6.03
2023-08-06T23:03:10.753Z,8.32
2023-08-06T23:05:39.099Z,8.05
2023-08-06T23:08:06.360Z,5.95
2023-08-06T23:10:33.002Z,6.82
2023-08-06T23:12:59.788Z,8.73
2023-08-06T23:15:26.453Z,8.93
2023-08-06T23:17:56.094Z,6.57
2023-08-06T23:20:22.980Z,5.32
2023-08-06T23:22:49.617Z,9.95
2023-08-06T23:25:19.333Z,6.75
2023-08-06T23:27:46.027Z,11.68
2023-08-06T23:30:15.698Z,8.63
2023-08-06T23:32:42.356Z,7.90
2023-08-06T23:35:09.230Z,6.55
2023-08-06T23:37:37.107Z,5.22
2023-08-06T23:40:03.971Z,10.60
2023-08-06T23:42:30.764Z,5.28
2023-08-06T23:44:57.328Z,8.00
2023-08-06T23:47:23.950Z,7.53
2023-08-06T23:49:50.651Z,12.40
2023-08-06T23:52:17.203Z,6.60
2023-08-06T23:54:43.770Z,4.45
2023-08-06T23:57:10.370Z,9.05
2023-08-06T23:59:37.033Z,9.43
